Time;durP1;ratioP1;P1;durP2;ratioP2;P2;SDS_P1;SDS_P2;PMS_P1;PMS_P2;Temp;Humidity;BMP_temperature;BMP_pressure;BME280_temperature;BME280_humidity;BME280_pressure;Samples;Min_cycle;Max_cycle;Signal;HPM_P1;HPM_P2
2023/05/11 00:00:36;;;;;;;12.60;12.00;;;;;;;;;;5025668;28;20485;-62
2023/05/11 00:03:01;;;;;;;12.65;12.05;;;;;;;;;;5027305;28;20021;-63
2023/05/11 00:05:26;;;;;;;12.90;12.20;;;;;;;;;;5026237;28;20025;-64
2023/05/11 00:07:51;;;;;;;13.68;12.93;;;;;;;;;;5030211;28;20029;-63
2023/05/11 00:10:17;;;;;;;14.48;13.60;;;;;;;;;;5021588;28;20064;-63
2023/05/11 00:12:42;;;;;;;12.85;12.25;;;;;;;;;;5025937;28;20021;-64
2023/05/11 00:15:08;;;;;;;12.82;12.20;;;;;;;;;;5032237;28;20021;-63
2023/05/11 00:17:33;;;;;;;12.65;12.05;;;;;;;;;;5028262;28;20493;-64
2023/05/11 00:19:58;;;;;;;13.35;12.65;;;;;;;;;;5027046;28;20025;-63
2023/05/11 00:22:23;;;;;;;13.18;12.48;;;;;;;;;;5027879;28;20453;-63
2023/05/11 00:24:49;;;;;;;12.57;11.98;;;;;;;;;;5029760;28;20072;-63
2023/05/11 00:27:14;;;;;;;12.50;11.90;;;;;;;;;;5030822;28;20043;-63
2023/05/11 00:29:39;;;;;;;12.48;11.88;;;;;;;;;;5030429;28;20031;-63
2023/05/11 00:32:05;;;;;;;13.10;12.40;;;;;;;;;;5032242;28;20100;-63
2023/05/11 00:34:30;;;;;;;13.07;12.38;;;;;;;;;;5030606;28;20125;-64
2023/05/11 00:36:56;;;;;;;12.50;11.90;;;;;;;;;;5040477;28;20020;-64
2023/05/11 00:39:21;;;;;;;13.10;12.40;;;;;;;;;;5035162;28;20048;-65
2023/05/11 00:41:47;;;;;;;12.63;12.02;;;;;;;;;;5029553;28;20033;-64
2023/05/11 00:44:12;;;;;;;12.57;11.98;;;;;;;;;;5029391;28;20017;-65
2023/05/11 00:46:38;;;;;;;13.32;12.63;;;;;;;;;;5025788;28;20386;-64
2023/05/11 00:49:03;;;;;;;12.35;11.75;;;;;;;;;;5039324;28;20029;-64
2023/05/11 00:51:30;;;;;;;12.60;12.00;;;;;;;;;;5034250;28;20494;-65
2023/05/11 00:53:56;;;;;;;13.45;12.73;;;;;;;;;;5032704;28;20104;-64
2023/05/11 00:56:22;;;;;;;12.50;11.90;;;;;;;;;;5028644;28;20112;-64
2023/05/11 00:58:47;;;;;;;13.02;12.32;;;;;;;;;;5032590;28;20073;-63
2023/05/11 01:01:16;;;;;;;13.50;12.70;;;;;;;;;;5023863;28;20138;-63
2023/05/11 01:03:41;;;;;;;13.10;12.40;;;;;;;;;;5036846;28;20037;-63
2023/05/11 01:06:09;;;;;;;12.20;11.60;;;;;;;;;;5039070;28;20079;-63
2023/05/11 01:08:51;;;;;;;12.55;11.95;;;;;;;;;;5033400;28;20071;-63
2023/05/11 01:11:24;;;;;;;12.90;12.20;;;;;;;;;;5023887;28;20128;-63
2023/05/11 01:14:10;;;;;;;12.77;12.07;;;;;;;;;;5028444;28;20029;-63
2023/05/11 01:16:37;;;;;;;12.50;11.90;;;;;;;;;;5030892;28;20524;-64
2023/05/11 01:19:10;;;;;;;13.52;12.73;;;;;;;;;;5026759;28;20037;-64
2023/05/11 01:21:36;;;;;;;12.73;12.02;;;;;;;;;;5033445;28;20042;-64
2023/05/11 01:24:21;;;;;;;12.32;11.73;;;;;;;;;;5035023;28;20531;-64
2023/05/11 01:26:49;;;;;;;12.45;11.85;;;;;;;;;;5031400;28;20040;-63
2023/05/11 01:29:14;;;;;;;13.52;12.73;;;;;;;;;;5037213;28;20021;-65
2023/05/11 01:31:41;;;;;;;13.68;12.88;;;;;;;;;;5034940;28;20021;-63
2023/05/11 01:34:17;;;;;;;12.30;11.70;;;;;;;;;;5034224;28;20025;-64
2023/05/11 01:36:47;;;;;;;13.10;12.40;;;;;;;;;;5030386;28;20036;-63
2023/05/11 01:39:13;;;;;;;13.15;12.45;;;;;;;;;;5030990;28;20109;-63
2023/05/11 01:41:40;;;;;;;12.90;12.20;;;;;;;;;;5027597;28;20029;-64
2023/05/11 01:44:08;;;;;;;13.10;12.40;;;;;;;;;;5028042;28;20025;-64
2023/05/11 01:46:33;;;;;;;13.10;12.40;;;;;;;;;;5032350;28;20018;-63
2023/05/11 01:49:00;;;;;;;12.13;11.52;;;;;;;;;;5032027;28;20029;-64
2023/05/11 01:51:28;;;;;;;13.57;12.77;;;;;;;;;;5033885;28;20421;-63
2023/05/11 01:53:54;;;;;;;12.98;12.27;;;;;;;;;;5033502;28;20029;-63
2023/05/11 01:56:20;;;;;;;13.73;12.93;;;;;;;;;;5038424;28;20139;-63
2023/05/11 01:58:46;;;;;;;13.10;12.40;;;;;;;;;;5023532;28;20399;-65
2023/05/11 02:01:13;;;;;;;13.07;12.38;;;;;;;;;;5026960;28;20045;-64
2023/05/11 02:03:40;;;;;;;12.60;12.00;;;;;;;;;;5030197;28;20030;-64
2023/05/11 02:06:06;;;;;;;13.05;12.35;;;;;;;;;;5032706;28;20040;-65
2023/05/11 02:08:32;;;;;;;12.40;11.80;;;;;;;;;;5024597;28;20120;-64
2023/05/11 02:10:58;;;;;;;13.48;12.77;;;;;;;;;;5030864;28;20036;-63
2023/05/11 02:13:25;;;;;;;13.20;12.50;;;;;;;;;;5035810;28;20026;-64
2023/05/11 02:15:52;;;;;;;12.95;12.27;;;;;;;;;;5026547;28;20028;-64
2023/05/11 02:18:18;;;;;;;13.25;12.55;;;;;;;;;;5031641;28;20113;-64
2023/05/11 02:20:44;;;;;;;13.18;12.48;;;;;;;;;;5033120;28;20047;-65
2023/05/11 02:23:10;;;;;;;12.77;12.13;;;;;;;;;;5031776;28;20448;-64
2023/05/11 02:25:39;;;;;;;12.98;12.27;;;;;;;;;;5031074;28;20109;-64
2023/05/11 02:28:05;;;;;;;12.60;12.00;;;;;;;;;;5025519;28;20030;-62
2023/05/11 02:30:31;;;;;;;13.00;12.30;;;;;;;;;;5036261;28;20059;-63
2023/05/11 02:32:57;;;;;;;12.85;12.15;;;;;;;;;;5029722;28;20096;-63
2023/05/11 02:35:26;;;;;;;12.80;12.10;;;;;;;;;;5036970;28;20017;-64
2023/05/11 02:37:54;;;;;;;12.60;12.00;;;;;;;;;;5027145;28;20032;-64
2023/05/11 02:40:23;;;;;;;13.40;12.70;;;;;;;;;;5025557;28;20534;-64
2023/05/11 02:42:52;;;;;;;13.10;12.40;;;;;;;;;;5038299;28;20412;-64
2023/05/11 02:45:19;;;;;;;14.02;13.23;;;;;;;;;;5030316;28;20025;-63
2023/05/11 02:47:52;;;;;;;13.20;12.50;;;;;;;;;;5027374;28;20082;-63
2023/05/11 02:50:17;;;;;;;14.20;13.40;;;;;;;;;;5028297;28;20056;-63
2023/05/11 02:52:44;;;;;;;14.90;14.10;;;;;;;;;;5037604;28;20029;-63
2023/05/11 02:55:10;;;;;;;15.05;14.18;;;;;;;;;;5023128;28;20100;-64
2023/05/11 02:57:36;;;;;;;13.82;13.13;;;;;;;;;;5033647;28;20041;-64
2023/05/11 03:00:02;;;;;;;14.70;13.82;;;;;;;;;;5030581;28;20017;-64
2023/05/11 03:02:27;;;;;;;14.82;13.98;;;;;;;;;;5033143;28;20061;-64
2023/05/11 03:04:53;;;;;;;14.65;13.75;;;;;;;;;;5030856;28;20030;-64
2023/05/11 03:07:18;;;;;;;14.93;14.02;;;;;;;;;;5023530;28;20022;-65
2023/05/11 03:09:43;;;;;;;13.63;12.93;;;;;;;;;;5025648;28;20485;-65
2023/05/11 03:12:09;;;;;;;13.30;12.60;;;;;;;;;;5038045;28;20022;-65
2023/05/11 03:14:35;;;;;;;13.02;12.32;;;;;;;;;;5028573;28;20037;-65
2023/05/11 03:17:01;;;;;;;12.77;12.18;;;;;;;;;;5036863;28;20033;-65
2023/05/11 03:19:27;;;;;;;13.68;12.88;;;;;;;;;;5028026;28;20340;-65
2023/05/11 03:21:53;;;;;;;12.65;12.05;;;;;;;;;;5029519;28;20030;-65
2023/05/11 03:24:18;;;;;;;13.18;12.48;;;;;;;;;;5030273;28;20031;-65
2023/05/11 03:26:44;;;;;;;13.35;12.63;;;;;;;;;;5031620;28;20032;-65
2023/05/11 03:29:11;;;;;;;13.30;12.60;;;;;;;;;;5022148;28;20067;-65
2023/05/11 03:31:36;;;;;;;13.00;12.32;;;;;;;;;;5029974;28;20021;-65
2023/05/11 03:34:02;;;;;;;13.57;12.82;;;;;;;;;;5031875;28;20024;-65
2023/05/11 03:36:27;;;;;;;12.40;11.80;;;;;;;;;;5031123;28;20029;-65
2023/05/11 03:38:55;;;;;;;12.45;11.85;;;;;;;;;;5031838;28;20033;-63
2023/05/11 03:41:21;;;;;;;12.73;12.13;;;;;;;;;;5029432;28;20091;-63
2023/05/11 03:43:48;;;;;;;12.50;11.90;;;;;;;;;;5030029;28;20033;-64
2023/05/11 03:46:15;;;;;;;12.65;12.05;;;;;;;;;;5027001;28;20553;-64
2023/05/11 03:48:41;;;;;;;12.65;12.05;;;;;;;;;;5025706;28;20033;-65
2023/05/11 03:51:08;;;;;;;12.90;12.30;;;;;;;;;;5023366;28;20392;-64
2023/05/11 03:53:33;;;;;;;12.70;12.10;;;;;;;;;;5028077;28;20040;-65
2023/05/11 03:55:59;;;;;;;12.73;12.13;;;;;;;;;;5023364;28;20021;-65
2023/05/11 03:58:24;;;;;;;12.82;12.23;;;;;;;;;;5028491;28;20053;-65
2023/05/11 04:00:50;;;;;;;12.50;11.90;;;;;;;;;;5021947;28;20053;-65
2023/05/11 04:03:15;;;;;;;12.63;12.02;;;;;;;;;;5032369;28;20032;-65
2023/05/11 04:05:40;;;;;;;12.70;12.10;;;;;;;;;;5028850;28;20057;-64
2023/05/11 04:08:06;;;;;;;13.38;12.77;;;;;;;;;;5030854;28;20014;-65
2023/05/11 04:10:31;;;;;;;12.52;11.93;;;;;;;;;;5039692;28;20033;-65
2023/05/11 04:12:57;;;;;;;13.18;12.57;;;;;;;;;;5024672;28;20103;-65
2023/05/11 04:15:22;;;;;;;12.50;11.90;;;;;;;;;;5030256;28;20392;-66
2023/05/11 04:17:47;;;;;;;13.10;12.50;;;;;;;;;;5024770;28;20080;-65
2023/05/11 04:20:13;;;;;;;13.07;12.48;;;;;;;;;;5036928;28;20083;-65
2023/05/11 04:22:38;;;;;;;12.55;11.95;;;;;;;;;;5037383;28;20397;-65
2023/05/11 04:25:04;;;;;;;12.93;12.33;;;;;;;;;;5036010;28;20029;-65
2023/05/11 04:27:33;;;;;;;13.10;12.50;;;;;;;;;;5035894;28;20262;-65
2023/05/11 04:29:58;;;;;;;12.65;12.05;;;;;;;;;;5032763;28;20029;-66
2023/05/11 04:32:23;;;;;;;12.90;12.30;;;;;;;;;;5030127;28;20028;-65
2023/05/11 04:34:49;;;;;;;13.10;12.50;;;;;;;;;;5036837;28;20424;-64
2023/05/11 04:37:15;;;;;;;12.70;12.10;;;;;;;;;;5033719;28;20135;-63
2023/05/11 04:39:40;;;;;;;12.40;11.80;;;;;;;;;;5030554;28;20433;-62
2023/05/11 04:42:05;;;;;;;12.70;12.10;;;;;;;;;;5030873;28;20028;-63
2023/05/11 04:44:30;;;;;;;12.50;11.90;;;;;;;;;;5034275;28;20038;-64
2023/05/11 04:46:56;;;;;;;12.65;12.05;;;;;;;;;;5032250;28;20070;-64
2023/05/11 04:49:21;;;;;;;13.30;12.70;;;;;;;;;;5034928;28;20564;-66
2023/05/11 04:51:47;;;;;;;13.30;12.70;;;;;;;;;;5031852;28;20103;-66
2023/05/11 04:54:12;;;;;;;12.53;11.93;;;;;;;;;;5032232;28;20104;-65
2023/05/11 04:56:39;;;;;;;12.70;12.10;;;;;;;;;;5033865;28;20251;-64
2023/05/11 04:59:05;;;;;;;13.70;13.10;;;;;;;;;;5026963;28;20318;-66
2023/05/11 05:01:31;;;;;;;13.32;12.73;;;;;;;;;;5031426;28;20072;-66
2023/05/11 05:03:56;;;;;;;13.00;12.40;;;;;;;;;;5030173;28;20057;-64
2023/05/11 05:06:21;;;;;;;12.70;12.10;;;;;;;;;;5031481;28;20765;-65
2023/05/11 05:08:46;;;;;;;13.10;12.50;;;;;;;;;;5036357;28;20036;-65
2023/05/11 05:11:12;;;;;;;12.68;12.07;;;;;;;;;;5023965;28;20337;-65
2023/05/11 05:13:37;;;;;;;12.82;12.23;;;;;;;;;;5036774;28;20025;-64
2023/05/11 05:16:02;;;;;;;12.23;11.73;;;;;;;;;;5031158;28;20421;-66
2023/05/11 05:18:28;;;;;;;12.30;11.80;;;;;;;;;;5033801;28;20547;-65
2023/05/11 05:20:53;;;;;;;11.97;11.47;;;;;;;;;;5033996;28;20472;-64
2023/05/11 05:23:18;;;;;;;12.50;11.90;;;;;;;;;;5028152;28;20262;-64
2023/05/11 05:25:44;;;;;;;12.40;11.80;;;;;;;;;;5030129;28;20032;-65
2023/05/11 05:28:09;;;;;;;13.45;12.85;;;;;;;;;;5027073;28;20374;-66
2023/05/11 05:30:35;;;;;;;12.57;11.97;;;;;;;;;;5034768;28;20033;-65
2023/05/11 05:33:01;;;;;;;12.65;12.05;;;;;;;;;;5031141;28;20267;-64
2023/05/11 05:35:26;;;;;;;13.98;13.27;;;;;;;;;;5036629;28;20453;-66
2023/05/11 05:37:52;;;;;;;13.05;12.45;;;;;;;;;;5029591;28;20060;-66
2023/05/11 05:40:18;;;;;;;13.30;12.70;;;;;;;;;;5030743;28;20041;-64
2023/05/11 05:42:43;;;;;;;12.55;11.95;;;;;;;;;;5027529;28;20079;-65
2023/05/11 05:45:08;;;;;;;14.10;13.40;;;;;;;;;;5025735;28;20014;-65
2023/05/11 05:47:34;;;;;;;13.18;12.57;;;;;;;;;;5025068;28;20030;-65
2023/05/11 05:49:59;;;;;;;12.70;12.10;;;;;;;;;;5026531;28;20034;-65
2023/05/11 05:52:25;;;;;;;13.20;12.60;;;;;;;;;;5026787;28;20029;-64
2023/05/11 05:54:50;;;;;;;12.48;11.88;;;;;;;;;;5033652;28;20081;-63
2023/05/11 05:57:15;;;;;;;12.60;12.00;;;;;;;;;;5033953;28;20021;-64
2023/05/11 05:59:41;;;;;;;12.50;11.90;;;;;;;;;;5032024;28;20319;-64
2023/05/11 06:02:07;;;;;;;13.00;12.40;;;;;;;;;;5032918;28;20057;-64
2023/05/11 06:04:32;;;;;;;12.95;12.35;;;;;;;;;;5029145;28;20021;-64
2023/05/11 06:06:58;;;;;;;12.65;12.05;;;;;;;;;;5028067;28;20043;-64
2023/05/11 06:09:24;;;;;;;12.77;12.18;;;;;;;;;;5032158;28;20021;-66
2023/05/11 06:11:49;;;;;;;12.63;12.02;;;;;;;;;;5036703;28;20029;-66
2023/05/11 06:14:14;;;;;;;12.68;12.07;;;;;;;;;;5031559;28;20516;-66
2023/05/11 06:16:40;;;;;;;12.82;12.23;;;;;;;;;;5037400;28;20033;-65
2023/05/11 06:19:06;;;;;;;12.32;11.75;;;;;;;;;;5031180;28;20436;-65
2023/05/11 06:21:31;;;;;;;12.07;11.57;;;;;;;;;;5029526;28;20090;-65
2023/05/11 06:23:57;;;;;;;12.17;11.67;;;;;;;;;;5025252;28;20022;-65
2023/05/11 06:26:23;;;;;;;12.80;12.20;;;;;;;;;;5031316;28;20270;-65
2023/05/11 06:28:49;;;;;;;13.00;12.40;;;;;;;;;;5031839;28;20270;-65
2023/05/11 06:31:14;;;;;;;13.15;12.55;;;;;;;;;;5028565;28;20112;-64
2023/05/11 06:33:39;;;;;;;12.57;11.97;;;;;;;;;;5027686;28;20032;-66
2023/05/11 06:36:05;;;;;;;12.45;11.85;;;;;;;;;;5031314;28;20773;-65
2023/05/11 06:38:31;;;;;;;12.68;12.07;;;;;;;;;;5030335;28;20041;-65
2023/05/11 06:40:56;;;;;;;12.20;11.70;;;;;;;;;;5028986;28;20017;-66
2023/05/11 06:43:22;;;;;;;12.70;12.10;;;;;;;;;;5030653;28;20029;-65
2023/05/11 06:45:47;;;;;;;12.70;12.10;;;;;;;;;;5027756;28;20099;-67
2023/05/11 06:48:13;;;;;;;12.52;11.93;;;;;;;;;;5028764;28;20079;-64
2023/05/11 06:50:38;;;;;;;12.50;11.90;;;;;;;;;;5024789;28;20044;-67
2023/05/11 06:53:04;;;;;;;12.65;12.05;;;;;;;;;;5025445;28;20362;-66
2023/05/11 06:55:29;;;;;;;12.40;11.80;;;;;;;;;;5032868;28;20623;-65
2023/05/11 06:57:54;;;;;;;12.85;12.25;;;;;;;;;;5030876;28;20029;-62
2023/05/11 07:00:20;;;;;;;12.95;12.35;;;;;;;;;;5024707;28;20029;-63
2023/05/11 07:02:45;;;;;;;12.55;11.95;;;;;;;;;;5023528;28;20796;-63
2023/05/11 07:05:11;;;;;;;12.40;11.80;;;;;;;;;;5025198;28;20034;-63
2023/05/11 07:07:37;;;;;;;12.48;11.88;;;;;;;;;;5032072;28;20503;-62
2023/05/11 07:10:02;;;;;;;13.00;12.40;;;;;;;;;;5026588;28;20022;-63
2023/05/11 07:12:28;;;;;;;12.30;11.70;;;;;;;;;;5033238;28;20017;-62
2023/05/11 07:14:53;;;;;;;12.25;11.65;;;;;;;;;;5032886;28;20385;-64
2023/05/11 07:17:18;;;;;;;12.70;12.10;;;;;;;;;;5029545;28;20819;-62
2023/05/11 07:19:43;;;;;;;12.52;11.93;;;;;;;;;;5032225;28;20497;-63
2023/05/11 07:22:09;;;;;;;12.47;11.87;;;;;;;;;;5023300;28;20676;-64
2023/05/11 07:24:35;;;;;;;13.30;12.70;;;;;;;;;;5028478;28;20397;-62
2023/05/11 07:27:00;;;;;;;13.38;12.77;;;;;;;;;;5026732;28;20641;-61
2023/05/11 07:29:26;;;;;;;12.95;12.35;;;;;;;;;;5019847;28;20028;-62
2023/05/11 07:31:51;;;;;;;12.40;11.80;;;;;;;;;;5028719;28;20033;-63
2023/05/11 07:34:17;;;;;;;12.65;12.05;;;;;;;;;;5026347;28;20028;-63
2023/05/11 07:36:42;;;;;;;13.02;12.43;;;;;;;;;;5022030;28;20033;-62
2023/05/11 07:39:07;;;;;;;12.65;12.05;;;;;;;;;;5025242;28;20036;-63
2023/05/11 07:41:33;;;;;;;12.88;12.27;;;;;;;;;;5024684;28;20026;-62
2023/05/11 07:43:59;;;;;;;12.75;12.15;;;;;;;;;;5029133;28;20048;-62
2023/05/11 07:46:24;;;;;;;12.65;12.05;;;;;;;;;;5023217;28;20481;-62
2023/05/11 07:48:49;;;;;;;12.18;11.60;;;;;;;;;;5024886;28;20064;-62
2023/05/11 07:51:14;;;;;;;12.30;11.70;;;;;;;;;;5023003;28;20029;-61
2023/05/11 07:53:40;;;;;;;13.67;12.97;;;;;;;;;;5028111;28;20517;-62
2023/05/11 07:56:05;;;;;;;13.50;12.80;;;;;;;;;;5024500;28;20266;-63
2023/05/11 07:58:31;;;;;;;12.63;12.02;;;;;;;;;;5026155;28;20027;-62
2023/05/11 08:00:57;;;;;;;12.57;11.98;;;;;;;;;;5024276;28;20121;-63
2023/05/11 08:03:22;;;;;;;14.05;13.35;;;;;;;;;;5021654;28;20045;-62
2023/05/11 08:05:47;;;;;;;14.45;13.65;;;;;;;;;;5023369;28;20025;-62
2023/05/11 08:08:13;;;;;;;13.32;12.68;;;;;;;;;;5030014;28;20025;-61
2023/05/11 08:10:38;;;;;;;13.60;12.90;;;;;;;;;;5020712;28;20553;-62
2023/05/11 08:13:04;;;;;;;12.90;12.30;;;;;;;;;;5028907;28;20025;-63
2023/05/11 08:15:31;;;;;;;12.23;11.63;;;;;;;;;;5023401;28;20049;-62
2023/05/11 08:17:56;;;;;;;13.40;12.70;;;;;;;;;;5030952;28;20025;-62
2023/05/11 08:20:22;;;;;;;12.75;12.15;;;;;;;;;;5018167;28;20430;-62
2023/05/11 08:22:47;;;;;;;12.60;12.00;;;;;;;;;;5018782;28;20029;-62
2023/05/11 08:25:12;;;;;;;12.52;11.93;;;;;;;;;;5028452;28;20034;-62
2023/05/11 08:27:38;;;;;;;12.52;11.93;;;;;;;;;;5029310;28;20021;-62
2023/05/11 08:30:03;;;;;;;12.88;12.27;;;;;;;;;;5025330;28;20030;-62
2023/05/11 08:32:29;;;;;;;13.18;12.48;;;;;;;;;;5028182;28;20125;-62
2023/05/11 08:34:54;;;;;;;12.70;12.10;;;;;;;;;;5017408;28;20053;-62
2023/05/11 08:37:19;;;;;;;12.75;12.15;;;;;;;;;;5024282;28;20428;-62
2023/05/11 08:39:45;;;;;;;12.55;11.95;;;;;;;;;;5028006;28;20022;-61
2023/05/11 08:42:12;;;;;;;13.10;12.40;;;;;;;;;;5023542;28;20029;-62
2023/05/11 08:44:41;;;;;;;12.60;12.00;;;;;;;;;;5024259;28;20042;-63
2023/05/11 08:47:07;;;;;;;13.02;12.32;;;;;;;;;;5030531;28;20440;-62
2023/05/11 08:49:33;;;;;;;12.88;12.20;;;;;;;;;;5027628;28;20354;-60
2023/05/11 08:52:02;;;;;;;12.25;11.65;;;;;;;;;;5018107;28;20014;-63
2023/05/11 08:54:27;;;;;;;12.65;12.05;;;;;;;;;;5026314;28;20021;-63
2023/05/11 08:56:53;;;;;;;12.98;12.27;;;;;;;;;;5027256;28;20010;-62
2023/05/11 08:59:19;;;;;;;12.93;12.23;;;;;;;;;;5034110;28;20542;-62
2023/05/11 09:01:44;;;;;;;12.85;12.23;;;;;;;;;;5032532;28;20060;-63
2023/05/11 09:04:10;;;;;;;12.95;12.25;;;;;;;;;;5026600;28;20045;-63
2023/05/11 09:06:37;;;;;;;13.25;12.55;;;;;;;;;;5031454;28;20504;-62
2023/05/11 09:09:02;;;;;;;12.75;12.15;;;;;;;;;;5023032;28;20020;-62
2023/05/11 09:11:28;;;;;;;13.45;12.75;;;;;;;;;;5033440;28;20031;-62
2023/05/11 09:13:53;;;;;;;11.90;11.30;;;;;;;;;;5027386;28;20020;-62
2023/05/11 09:16:19;;;;;;;12.35;11.75;;;;;;;;;;5019629;28;20061;-62
2023/05/11 09:18:48;;;;;;;12.75;12.15;;;;;;;;;;5031273;28;20456;-62
2023/05/11 09:21:13;;;;;;;13.30;12.60;;;;;;;;;;5032190;28;20104;-62
2023/05/11 09:23:39;;;;;;;12.70;12.10;;;;;;;;;;5034004;28;20112;-62
2023/05/11 09:26:12;;;;;;;12.70;12.10;;;;;;;;;;5022584;28;20451;-63
2023/05/11 09:28:37;;;;;;;13.25;12.55;;;;;;;;;;5031850;28;20473;-61
2023/05/11 09:31:02;;;;;;;12.57;11.98;;;;;;;;;;5024936;28;20075;-61
2023/05/11 09:33:27;;;;;;;12.25;11.65;;;;;;;;;;5016893;28;20021;-62
2023/05/11 09:35:53;;;;;;;12.73;12.13;;;;;;;;;;5028967;28;20562;-62
2023/05/11 09:38:19;;;;;;;12.98;12.32;;;;;;;;;;5033182;28;20112;-61
2023/05/11 09:40:52;;;;;;;12.82;12.20;;;;;;;;;;5023480;28;20033;-63
2023/05/11 09:43:18;;;;;;;12.25;11.65;;;;;;;;;;5019880;28;20546;-62
2023/05/11 09:45:44;;;;;;;12.57;11.98;;;;;;;;;;5032815;28;20068;-61
2023/05/11 09:48:23;;;;;;;12.55;11.95;;;;;;;;;;5037514;28;20025;-61
2023/05/11 09:50:49;;;;;;;13.10;12.40;;;;;;;;;;5031840;28;20096;-61
2023/05/11 09:53:14;;;;;;;12.52;11.93;;;;;;;;;;5025858;28;20759;-62
2023/05/11 09:55:53;;;;;;;12.82;12.23;;;;;;;;;;5027015;28;20033;-61
2023/05/11 09:58:18;;;;;;;12.35;11.75;;;;;;;;;;5031755;28;20034;-61
2023/05/11 10:00:50;;;;;;;13.40;12.70;;;;;;;;;;5038560;28;20382;-61
2023/05/11 10:03:16;;;;;;;14.00;13.30;;;;;;;;;;5025462;28;20485;-61
2023/05/11 10:05:54;;;;;;;12.48;11.90;;;;;;;;;;5023312;28;20072;-63
2023/05/11 10:08:26;;;;;;;13.48;12.77;;;;;;;;;;5015265;28;20017;-62
2023/05/11 10:10:51;;;;;;;13.10;12.43;;;;;;;;;;5030737;28;20400;-62
2023/05/11 10:13:16;;;;;;;12.60;12.00;;;;;;;;;;5024809;28;20109;-61
2023/05/11 10:15:42;;;;;;;12.73;12.13;;;;;;;;;;5025435;28;20394;-62
2023/05/11 10:18:08;;;;;;;12.68;12.07;;;;;;;;;;5027461;28;20513;-61
2023/05/11 10:20:33;;;;;;;12.75;12.15;;;;;;;;;;5021808;28;20029;-61
2023/05/11 10:22:58;;;;;;;13.07;12.40;;;;;;;;;;5017589;28;20468;-63
2023/05/11 10:25:25;;;;;;;12.70;12.07;;;;;;;;;;5031412;28;20074;-63
2023/05/11 10:27:50;;;;;;;13.45;12.75;;;;;;;;;;5030046;28;20021;-63
2023/05/11 10:30:16;;;;;;;13.50;12.80;;;;;;;;;;5019351;28;20100;-63
2023/05/11 10:32:43;;;;;;;13.18;12.48;;;;;;;;;;5026334;28;20052;-62
2023/05/11 10:35:08;;;;;;;14.05;13.27;;;;;;;;;;5038989;28;20500;-62
2023/05/11 10:37:34;;;;;;;13.63;12.93;;;;;;;;;;5025847;28;20100;-63
2023/05/11 10:39:59;;;;;;;12.98;12.27;;;;;;;;;;5028082;28;20026;-62
2023/05/11 10:42:39;;;;;;;13.38;12.68;;;;;;;;;;5032082;28;20151;-63
2023/05/11 10:45:14;;;;;;;13.38;12.68;;;;;;;;;;5014165;28;20034;-63
2023/05/11 10:47:54;;;;;;;13.02;12.35;;;;;;;;;;5033093;28;20025;-62
2023/05/11 10:50:35;;;;;;;13.00;12.30;;;;;;;;;;5019553;28;20474;-63
2023/05/11 10:53:09;;;;;;;13.77;13.00;;;;;;;;;;5036876;28;20408;-61
2023/05/11 10:55:34;;;;;;;12.95;12.25;;;;;;;;;;5020465;28;20017;-63
2023/05/11 10:58:14;;;;;;;12.88;12.20;;;;;;;;;;5032604;28;20090;-62
2023/05/11 11:00:42;;;;;;;12.77;12.15;;;;;;;;;;5019401;28;20087;-62
2023/05/11 11:03:11;;;;;;;13.43;12.73;;;;;;;;;;5025417;28;20090;-62
2023/05/11 11:05:37;;;;;;;12.90;12.25;;;;;;;;;;5013040;28;20021;-62
2023/05/11 11:08:03;;;;;;;13.52;12.82;;;;;;;;;;5013251;28;20425;-61
2023/05/11 11:10:36;;;;;;;13.13;12.45;;;;;;;;;;5062264;28;20017;-61
2023/05/11 11:13:06;;;;;;;12.35;11.75;;;;;;;;;;5030791;28;20481;-62
2023/05/11 11:15:50;;;;;;;12.48;11.88;;;;;;;;;;5020057;28;20028;-62
2023/05/11 11:18:33;;;;;;;13.35;12.65;;;;;;;;;;5018748;28;20108;-62
2023/05/11 11:21:00;;;;;;;13.10;12.40;;;;;;;;;;5021172;28;20431;-62
2023/05/11 11:23:44;;;;;;;13.30;12.60;;;;;;;;;;5030850;28;20026;-63
2023/05/11 11:26:10;;;;;;;13.48;12.77;;;;;;;;;;5030745;28;20420;-62
2023/05/11 11:28:59;;;;;;;12.98;12.27;;;;;;;;;;5033278;28;20049;-62
2023/05/11 11:31:24;;;;;;;14.63;13.77;;;;;;;;;;5033465;28;20094;-62
2023/05/11 11:33:50;;;;;;;12.95;12.25;;;;;;;;;;5040425;28;20389;-62
2023/05/11 11:36:15;;;;;;;13.45;12.75;;;;;;;;;;5037571;28;20018;-62
2023/05/11 11:39:10;;;;;;;13.15;12.45;;;;;;;;;;5022090;28;20030;-62
2023/05/11 11:41:36;;;;;;;13.45;12.75;;;;;;;;;;5014522;28;20033;-62
2023/05/11 11:44:03;;;;;;;13.13;12.43;;;;;;;;;;5025189;28;20030;-63
2023/05/11 11:46:28;;;;;;;13.95;13.18;;;;;;;;;;5012757;28;20034;-62
2023/05/11 11:49:09;;;;;;;13.15;12.45;;;;;;;;;;5027614;28;20079;-63
2023/05/11 11:51:36;;;;;;;13.77;13.02;;;;;;;;;;5016317;28;20013;-62
2023/05/11 11:54:02;;;;;;;12.43;11.82;;;;;;;;;;5028089;28;20028;-62
2023/05/11 11:56:27;;;;;;;12.20;11.60;;;;;;;;;;5025909;28;20451;-63
2023/05/11 11:58:59;;;;;;;13.13;12.43;;;;;;;;;;5029034;28;20025;-63
2023/05/11 12:01:26;;;;;;;13.07;12.38;;;;;;;;;;5024392;28;20509;-62
2023/05/11 12:03:57;;;;;;;12.25;11.65;;;;;;;;;;5020124;28;20033;-63
2023/05/11 12:06:24;;;;;;;12.93;12.23;;;;;;;;;;5030784;28;20337;-62
2023/05/11 12:08:50;;;;;;;12.18;11.57;;;;;;;;;;5023355;28;20093;-62
2023/05/11 12:11:16;;;;;;;12.95;12.25;;;;;;;;;;5021860;28;20669;-62
2023/05/11 12:13:42;;;;;;;13.20;12.50;;;;;;;;;;5025138;28;20022;-62
2023/05/11 12:16:29;;;;;;;12.68;12.07;;;;;;;;;;5025347;28;20026;-62
2023/05/11 12:18:55;;;;;;;12.35;11.75;;;;;;;;;;5030972;28;20073;-61
2023/05/11 12:21:21;;;;;;;12.60;12.00;;;;;;;;;;5029349;28;20392;-62
2023/05/11 12:23:51;;;;;;;12.77;12.13;;;;;;;;;;5030986;28;20018;-62
2023/05/11 12:26:18;;;;;;;13.65;12.95;;;;;;;;;;5026024;28;20398;-62
2023/05/11 12:28:48;;;;;;;13.02;12.32;;;;;;;;;;5031853;28;20072;-62
2023/05/11 12:31:13;;;;;;;14.85;13.98;;;;;;;;;;5032168;28;20025;-62
2023/05/11 12:33:45;;;;;;;13.48;12.77;;;;;;;;;;5034686;28;20362;-63
2023/05/11 12:36:13;;;;;;;12.57;11.98;;;;;;;;;;5034207;28;20025;-62
2023/05/11 12:38:45;;;;;;;12.80;12.18;;;;;;;;;;5025691;28;20488;-62
2023/05/11 12:41:10;;;;;;;13.55;12.85;;;;;;;;;;5021623;28;20063;-63
2023/05/11 12:43:36;;;;;;;13.13;12.45;;;;;;;;;;5029964;28;20513;-62
2023/05/11 12:46:02;;;;;;;13.05;12.35;;;;;;;;;;5027713;28;20025;-63
2023/05/11 12:48:28;;;;;;;12.30;11.70;;;;;;;;;;5034044;28;20519;-63
2023/05/11 12:50:53;;;;;;;13.20;12.50;;;;;;;;;;5034014;28;20013;-62
2023/05/11 12:53:18;;;;;;;13.23;12.52;;;;;;;;;;5035249;28;20022;-62
2023/05/11 12:55:44;;;;;;;12.75;12.15;;;;;;;;;;5020895;28;20442;-61
2023/05/11 12:58:10;;;;;;;12.50;11.90;;;;;;;;;;5023189;28;20036;-62
2023/05/11 13:00:36;;;;;;;12.98;12.30;;;;;;;;;;5029146;28;20084;-62
2023/05/11 13:03:01;;;;;;;13.10;12.40;;;;;;;;;;5018981;28;20364;-63
2023/05/11 13:05:28;;;;;;;13.40;12.70;;;;;;;;;;5021843;28;20055;-62
2023/05/11 13:08:00;;;;;;;13.65;12.95;;;;;;;;;;5033285;28;20025;-62
2023/05/11 13:10:26;;;;;;;12.55;11.95;;;;;;;;;;5032782;28;20060;-62
2023/05/11 13:12:52;;;;;;;12.80;12.20;;;;;;;;;;5034296;28;20511;-62
2023/05/11 13:15:18;;;;;;;12.95;12.32;;;;;;;;;;5031530;28;20105;-63
2023/05/11 13:17:43;;;;;;;12.93;12.23;;;;;;;;;;5033978;28;20092;-62
2023/05/11 13:20:18;;;;;;;13.20;12.50;;;;;;;;;;5021000;28;20068;-63
2023/05/11 13:22:43;;;;;;;;;;;;;;;;;;5025677;28;20040;-62
2023/05/11 13:25:09;;;;;;;12.73;12.10;;;;;;;;;;5030194;28;20403;-63
2023/05/11 13:27:35;;;;;;;12.70;12.10;;;;;;;;;;5036350;28;20014;-62
2023/05/11 13:30:00;;;;;;;13.00;12.30;;;;;;;;;;5033245;28;20087;-63
2023/05/11 13:32:25;;;;;;;14.00;13.20;;;;;;;;;;5033010;28;20079;-62
2023/05/11 13:34:51;;;;;;;12.40;11.80;;;;;;;;;;5020795;28;20018;-62
2023/05/11 13:37:16;;;;;;;13.65;12.95;;;;;;;;;;5022225;28;20018;-61
2023/05/11 13:39:41;;;;;;;13.25;12.55;;;;;;;;;;5031915;28;20389;-62
2023/05/11 13:42:06;;;;;;;13.77;13.07;;;;;;;;;;5026920;28;20029;-61
2023/05/11 13:44:32;;;;;;;12.52;11.93;;;;;;;;;;5024111;28;20022;-61
2023/05/11 13:46:57;;;;;;;12.65;12.05;;;;;;;;;;5022666;28;20536;-63
2023/05/11 13:49:22;;;;;;;12.40;11.80;;;;;;;;;;5029975;28;20523;-62
2023/05/11 13:51:47;;;;;;;13.82;13.10;;;;;;;;;;5026592;28;20024;-63
2023/05/11 13:54:13;;;;;;;13.35;12.65;;;;;;;;;;5024529;28;20487;-62
2023/05/11 13:56:38;;;;;;;12.70;12.10;;;;;;;;;;5038909;28;20373;-62
2023/05/11 13:59:04;;;;;;;12.35;11.75;;;;;;;;;;5026980;28;20080;-62
2023/05/11 14:01:29;;;;;;;13.60;12.90;;;;;;;;;;5028601;28;20051;-64
2023/05/11 14:03:55;;;;;;;12.55;11.95;;;;;;;;;;5026203;28;20014;-62
2023/05/11 14:06:21;;;;;;;13.65;12.95;;;;;;;;;;5031253;28;20128;-62
2023/05/11 14:08:46;;;;;;;13.20;12.50;;;;;;;;;;5020892;28;20429;-63
2023/05/11 14:11:12;;;;;;;13.35;12.65;;;;;;;;;;5031273;28;20022;-63
2023/05/11 14:13:37;;;;;;;12.60;12.00;;;;;;;;;;5026013;28;20548;-63
2023/05/11 14:16:02;;;;;;;13.35;12.65;;;;;;;;;;5028414;28;20056;-62